createdAt,value
2024-01-11T00:00:22.020Z,6.92
2024-01-11T00:01:22.129Z,7.00
2024-01-11T00:02:22.203Z,6.89
2024-01-11T00:03:22.168Z,6.90
2024-01-11T00:04:22.264Z,6.89
2024-01-11T00:05:22.327Z,6.79
2024-01-11T00:06:22.347Z,6.82
2024-01-11T00:07:22.329Z,6.77
2024-01-11T00:08:22.454Z,6.82
2024-01-11T00:09:22.392Z,6.82
2024-01-11T00:10:22.356Z,6.82
2024-01-11T00:11:22.379Z,6.79
2024-01-11T00:12:22.338Z,6.86
2024-01-11T00:13:22.327Z,6.78
2024-01-11T00:14:22.452Z,6.82
2024-01-11T00:15:22.320Z,6.70
2024-01-11T00:16:22.281Z,6.69
2024-01-11T00:17:22.308Z,6.66
2024-01-11T00:18:22.494Z,6.54
2024-01-11T00:19:22.281Z,6.54
2024-01-11T00:20:22.250Z,6.55
2024-01-11T00:21:22.211Z,6.51
2024-01-11T00:22:22.189Z,6.54
2024-01-11T00:23:22.242Z,6.47
2024-01-11T00:24:22.186Z,6.43
2024-01-11T00:25:22.161Z,6.42
2024-01-11T00:26:22.280Z,6.37
2024-01-11T00:27:22.140Z,6.35
2024-01-11T00:28:22.132Z,6.41
2024-01-11T00:29:22.205Z,6.37
2024-01-11T00:30:22.133Z,6.32
2024-01-11T00:31:22.130Z,6.25
2024-01-11T00:32:22.192Z,6.26
2024-01-11T00:33:22.175Z,6.15
2024-01-11T00:34:22.113Z,6.23
2024-01-11T00:35:22.232Z,6.29
2024-01-11T00:36:22.204Z,6.16
2024-01-11T00:37:22.234Z,6.16
2024-01-11T00:38:22.342Z,6.13
2024-01-11T00:39:22.360Z,6.10
2024-01-11T00:40:22.384Z,6.13
2024-01-11T00:41:22.480Z,5.99
2024-01-11T00:42:22.480Z,6.10
2024-01-11T00:43:22.539Z,6.05
2024-01-11T00:44:22.607Z,6.12
2024-01-11T00:45:22.638Z,6.02
2024-01-11T00:46:22.690Z,5.97
2024-01-11T00:47:22.823Z,5.94
2024-01-11T00:48:22.894Z,6.00
2024-01-11T00:49:22.863Z,6.00
2024-01-11T00:50:22.953Z,5.94
2024-01-11T00:51:22.888Z,5.94
2024-01-11T00:52:22.871Z,5.95
2024-01-11T00:53:22.896Z,5.97
2024-01-11T00:54:22.869Z,5.96
2024-01-11T00:55:22.847Z,5.94
2024-01-11T00:56:22.899Z,5.90
2024-01-11T00:57:23.038Z,5.94
2024-01-11T00:58:22.806Z,5.91
2024-01-11T00:59:22.828Z,5.90
2024-01-11T01:00:22.770Z,5.86
2024-01-11T01:01:22.889Z,5.84
2024-01-11T01:02:22.951Z,5.69
2024-01-11T01:03:22.949Z,5.83
2024-01-11T01:04:22.951Z,5.82
2024-01-11T01:05:23.062Z,5.85
2024-01-11T01:06:23.115Z,5.80
2024-01-11T01:07:23.086Z,5.69
2024-01-11T01:08:23.172Z,5.63
2024-01-11T01:09:23.188Z,5.71
2024-01-11T01:10:23.254Z,5.81
2024-01-11T01:11:23.318Z,5.73
2024-01-11T01:12:23.336Z,5.64
2024-01-11T01:13:23.352Z,5.57
2024-01-11T01:14:23.379Z,5.64
2024-01-11T01:15:23.308Z,5.66
2024-01-11T01:16:23.327Z,5.68
2024-01-11T01:17:23.307Z,5.73
2024-01-11T01:18:23.399Z,5.64
2024-01-11T01:19:23.301Z,5.51
2024-01-11T01:20:23.348Z,5.64
2024-01-11T01:21:23.280Z,5.66
2024-01-11T01:22:23.261Z,5.65
2024-01-11T01:23:23.295Z,5.68
2024-01-11T01:24:23.244Z,5.70
2024-01-11T01:25:23.301Z,5.61
2024-01-11T01:26:23.310Z,5.52
2024-01-11T01:27:23.246Z,5.53
2024-01-11T01:28:23.237Z,5.54
2024-01-11T01:29:23.309Z,5.55
2024-01-11T01:30:23.227Z,5.57
2024-01-11T01:31:23.227Z,5.54
2024-01-11T01:32:23.497Z,5.62
2024-01-11T01:33:23.289Z,5.59
2024-01-11T01:34:23.321Z,5.59
2024-01-11T01:35:23.315Z,5.60
2024-01-11T01:36:23.179Z,5.57
2024-01-11T01:37:23.163Z,5.54
2024-01-11T01:38:23.196Z,5.55
2024-01-11T01:39:23.159Z,5.49
2024-01-11T01:40:23.130Z,5.50
2024-01-11T01:41:23.185Z,5.44
2024-01-11T01:42:23.127Z,5.51
2024-01-11T01:43:23.110Z,5.44
2024-01-11T01:44:23.167Z,5.44
2024-01-11T01:45:23.102Z,5.43
2024-01-11T01:46:23.132Z,5.39
2024-01-11T01:47:23.282Z,5.38
2024-01-11T01:48:23.615Z,5.45
2024-01-11T01:49:23.429Z,5.39
2024-01-11T01:50:23.373Z,5.41
2024-01-11T01:51:23.373Z,5.36
2024-01-11T01:52:23.548Z,5.36
2024-01-11T01:53:23.496Z,5.36
2024-01-11T01:54:23.333Z,5.30
2024-01-11T01:55:23.331Z,5.37
2024-01-11T01:56:23.361Z,5.33
2024-01-11T01:57:23.310Z,5.30
2024-01-11T01:58:23.300Z,5.32
2024-01-11T01:59:23.309Z,5.32
2024-01-11T02:00:23.282Z,5.33
2024-01-11T02:01:23.330Z,5.23
2024-01-11T02:02:23.312Z,5.34
2024-01-11T02:03:23.283Z,5.26
2024-01-11T02:04:23.230Z,5.25
2024-01-11T02:05:23.319Z,5.21
2024-01-11T02:06:23.282Z,5.19
2024-01-11T02:07:23.206Z,5.19
2024-01-11T02:08:23.182Z,5.21
2024-01-11T02:09:23.167Z,5.22
2024-01-11T02:10:23.144Z,5.20
2024-01-11T02:11:23.211Z,5.25
2024-01-11T02:12:23.157Z,5.19
2024-01-11T02:13:23.114Z,5.15
2024-01-11T02:14:23.244Z,5.19
2024-01-11T02:15:23.119Z,5.20
2024-01-11T02:16:23.098Z,5.21
2024-01-11T02:17:23.138Z,5.22
2024-01-11T02:18:23.275Z,5.17
2024-01-11T02:19:23.175Z,5.16
2024-01-11T02:20:23.113Z,5.20
2024-01-11T02:21:23.085Z,5.18
2024-01-11T02:22:23.066Z,5.14
2024-01-11T02:23:23.147Z,5.08
2024-01-11T02:24:23.054Z,5.00
2024-01-11T02:25:23.056Z,4.98
2024-01-11T02:26:23.156Z,5.07
2024-01-11T02:27:23.110Z,4.99
2024-01-11T02:28:23.155Z,5.02
2024-01-11T02:29:23.208Z,4.93
2024-01-11T02:30:23.222Z,4.93
2024-01-11T02:31:23.284Z,4.93
2024-01-11T02:32:23.264Z,4.95
2024-01-11T02:33:23.315Z,4.99
2024-01-11T02:34:23.186Z,4.93
2024-01-11T02:35:23.179Z,4.93
2024-01-11T02:36:23.157Z,4.93
2024-01-11T02:37:23.128Z,4.96
2024-01-11T02:38:23.193Z,4.98
2024-01-11T02:39:23.132Z,4.96
2024-01-11T02:40:23.116Z,4.96
2024-01-11T02:41:23.147Z,4.96
2024-01-11T02:42:23.100Z,4.90
2024-01-11T02:43:23.073Z,4.76
2024-01-11T02:44:23.138Z,4.96
2024-01-11T02:45:23.054Z,4.95
2024-01-11T02:46:23.045Z,4.96
2024-01-11T02:47:23.057Z,4.97
2024-01-11T02:48:23.093Z,4.96
2024-01-11T02:49:23.071Z,4.88
2024-01-11T02:50:23.040Z,4.96
2024-01-11T02:51:23.002Z,4.85
2024-01-11T02:52:22.984Z,4.82
2024-01-11T02:53:23.017Z,4.81
2024-01-11T02:54:22.965Z,4.77
2024-01-11T02:55:22.958Z,4.81
2024-01-11T02:56:23.005Z,4.82
2024-01-11T02:57:22.954Z,4.83
2024-01-11T02:58:22.998Z,4.79
2024-01-11T02:59:23.067Z,4.74
2024-01-11T03:00:23.092Z,4.78
2024-01-11T03:01:23.164Z,4.67
2024-01-11T03:02:23.250Z,4.69
2024-01-11T03:03:23.268Z,4.68
2024-01-11T03:04:23.274Z,4.66
2024-01-11T03:05:23.339Z,4.66
2024-01-11T03:06:23.541Z,4.63
2024-01-11T03:07:23.415Z,4.74
2024-01-11T03:08:23.548Z,4.59
2024-01-11T03:09:23.500Z,4.61
2024-01-11T03:10:23.542Z,4.59
2024-01-11T03:11:23.755Z,4.63
2024-01-11T03:12:23.659Z,4.59
2024-01-11T03:13:23.713Z,4.48
2024-01-11T03:14:23.781Z,4.51
2024-01-11T03:15:23.792Z,4.53
2024-01-11T03:16:23.827Z,4.75
2024-01-11T03:17:23.871Z,4.51
2024-01-11T03:18:23.999Z,4.49
2024-01-11T03:19:23.838Z,4.34
2024-01-11T03:20:23.944Z,4.21
2024-01-11T03:21:23.822Z,3.98
2024-01-11T03:22:23.811Z,3.83
2024-01-11T03:23:23.828Z,3.69
2024-01-11T03:24:23.790Z,3.52
2024-01-11T03:25:23.760Z,3.39
2024-01-11T03:26:23.774Z,3.26
2024-01-11T03:27:23.744Z,3.15
2024-01-11T03:28:23.739Z,3.01
2024-01-11T03:29:23.803Z,2.97
2024-01-11T03:30:23.765Z,2.80
2024-01-11T03:31:23.738Z,2.69
2024-01-11T03:32:23.820Z,2.57
2024-01-11T03:33:23.931Z,2.47
2024-01-11T03:34:23.761Z,2.41
2024-01-11T03:35:23.711Z,2.28
2024-01-11T03:36:23.687Z,2.23
2024-01-11T03:37:23.675Z,2.18
2024-01-11T03:38:23.683Z,2.11
2024-01-11T03:39:23.671Z,1.96
2024-01-11T03:40:23.691Z,1.93
2024-01-11T03:41:23.704Z,1.89
2024-01-11T03:42:23.661Z,1.83
2024-01-11T03:43:23.680Z,1.80
2024-01-11T03:44:23.726Z,1.75
2024-01-11T03:45:23.674Z,1.67
2024-01-11T03:46:23.670Z,1.66
2024-01-11T03:47:23.678Z,1.59
2024-01-11T03:48:23.796Z,1.58
2024-01-11T03:49:23.737Z,1.54
2024-01-11T03:50:23.686Z,1.50
2024-01-11T03:51:23.631Z,1.47
2024-01-11T03:52:23.634Z,1.47
2024-01-11T03:53:23.674Z,1.47
2024-01-11T03:54:23.684Z,1.47
2024-01-11T03:55:23.639Z,1.47
2024-01-11T03:56:23.681Z,1.47
2024-01-11T03:57:23.629Z,1.42
2024-01-11T03:58:23.650Z,1.39
2024-01-11T03:59:23.637Z,1.44
2024-01-11T04:00:23.620Z,1.43
2024-01-11T04:01:23.652Z,1.42
2024-01-11T04:02:23.676Z,1.43
2024-01-11T04:03:23.701Z,1.37
2024-01-11T04:04:23.665Z,1.36
2024-01-11T04:05:23.854Z,1.37
2024-01-11T04:06:23.885Z,1.36
2024-01-11T04:07:23.693Z,1.36
2024-01-11T04:08:23.768Z,1.34
2024-01-11T04:09:23.726Z,1.31
2024-01-11T04:10:23.742Z,1.32
2024-01-11T04:11:23.790Z,1.30
2024-01-11T04:12:23.788Z,1.26
2024-01-11T04:13:25.496Z,1.30
2024-01-11T04:14:23.883Z,1.29
2024-01-11T04:15:23.826Z,1.29
2024-01-11T04:16:23.885Z,1.27
2024-01-11T04:17:24.053Z,1.27
2024-01-11T04:18:23.964Z,1.28
2024-01-11T04:19:24.321Z,1.30
2024-01-11T04:20:23.974Z,1.24
2024-01-11T04:21:23.970Z,1.24
2024-01-11T04:22:23.994Z,1.22
2024-01-11T04:23:24.122Z,1.19
2024-01-11T04:24:24.050Z,1.18
2024-01-11T04:25:24.056Z,1.18
2024-01-11T04:26:24.137Z,1.16
2024-01-11T04:27:24.156Z,1.14
2024-01-11T04:28:24.144Z,1.12
2024-01-11T04:29:24.228Z,1.08
2024-01-11T04:30:24.246Z,1.06
2024-01-11T04:31:24.255Z,1.08
2024-01-11T04:32:24.303Z,1.09
2024-01-11T04:33:24.395Z,1.08
2024-01-11T04:34:24.428Z,1.12
2024-01-11T04:35:24.415Z,1.08
2024-01-11T04:36:24.420Z,1.10
2024-01-11T04:37:24.452Z,1.09
2024-01-11T04:38:24.480Z,1.09
2024-01-11T04:39:24.438Z,1.09
2024-01-11T04:40:24.454Z,1.09
2024-01-11T04:41:31.751Z,0.50
2024-01-11T04:42:31.744Z,0.50
2024-01-11T04:43:31.764Z,0.50
2024-01-11T04:44:31.837Z,0.50
2024-01-11T04:45:31.782Z,0.50
2024-01-11T04:46:31.813Z,0.53
2024-01-11T04:47:31.863Z,0.52
2024-01-11T04:48:31.989Z,0.50
2024-01-11T04:49:31.932Z,0.51
2024-01-11T04:50:31.909Z,0.51
2024-01-11T04:51:31.872Z,0.53
2024-01-11T04:52:31.901Z,0.53
2024-01-11T04:53:31.937Z,0.54
2024-01-11T04:54:31.911Z,0.54
2024-01-11T04:55:31.929Z,0.54
2024-01-11T04:56:32.020Z,0.55
2024-01-11T04:57:31.946Z,0.57
2024-01-11T04:58:31.986Z,0.56
2024-01-11T04:59:32.002Z,0.56
2024-01-11T05:00:32.030Z,0.56
2024-01-11T05:01:32.054Z,0.57
2024-01-11T05:02:32.156Z,0.57
2024-01-11T05:03:32.087Z,0.56
2024-01-11T05:04:32.065Z,0.56
2024-01-11T05:05:32.078Z,0.55
2024-01-11T05:06:32.110Z,0.54
2024-01-11T05:07:32.122Z,0.54
2024-01-11T05:08:32.126Z,0.54
2024-01-11T05:09:32.117Z,0.54
2024-01-11T05:10:32.136Z,0.54
2024-01-11T05:11:32.218Z,0.55
2024-01-11T05:12:32.157Z,0.57
2024-01-11T05:13:32.164Z,0.54
2024-01-11T05:14:32.241Z,0.54
2024-01-11T05:15:32.203Z,0.54
2024-01-11T05:16:32.231Z,0.55
2024-01-11T05:17:32.304Z,0.58
2024-01-11T05:18:34.627Z,0.58
2024-01-11T05:19:32.336Z,0.59
2024-01-11T05:20:32.297Z,0.57
2024-01-11T05:21:32.287Z,0.58
2024-01-11T05:22:32.296Z,0.59
2024-01-11T05:23:32.358Z,0.62
2024-01-11T05:24:32.291Z,0.62
2024-01-11T05:25:32.315Z,0.62
2024-01-11T05:26:32.380Z,0.60
2024-01-11T05:27:32.342Z,0.61
2024-01-11T05:28:32.347Z,0.60
2024-01-11T05:29:32.388Z,0.63
2024-01-11T05:30:32.439Z,0.63
2024-01-11T05:31:32.491Z,0.64
2024-01-11T05:32:32.530Z,0.66
2024-01-11T05:33:32.576Z,0.63
2024-01-11T05:34:32.578Z,0.63
2024-01-11T05:35:32.458Z,0.63
2024-01-11T05:36:32.491Z,0.63
2024-01-11T05:37:32.473Z,0.64
2024-01-11T05:38:32.506Z,0.67
2024-01-11T05:39:32.466Z,0.71
2024-01-11T05:40:32.475Z,0.69
2024-01-11T05:41:32.524Z,0.68
2024-01-11T05:42:32.493Z,0.73
2024-01-11T05:43:32.514Z,0.75
2024-01-11T05:44:32.571Z,0.77
2024-01-11T05:45:45.377Z,0.80
2024-01-11T05:46:33.942Z,0.80
2024-01-11T05:47:32.601Z,0.79
2024-01-11T05:48:32.621Z,0.78
2024-01-11T05:49:32.563Z,0.78
2024-01-11T05:50:32.559Z,0.79
2024-01-11T05:51:32.549Z,0.83
2024-01-11T05:52:32.557Z,0.84
2024-01-11T05:53:32.596Z,0.84
2024-01-11T05:54:32.574Z,0.83
2024-01-11T05:55:32.606Z,0.84
2024-01-11T05:56:32.674Z,0.84
2024-01-11T05:57:32.603Z,0.84
2024-01-11T05:58:32.610Z,0.84
2024-01-11T05:59:32.666Z,0.86
2024-01-11T06:00:32.677Z,0.87
2024-01-11T06:01:32.652Z,0.87
2024-01-11T06:02:32.677Z,0.88
2024-01-11T06:03:32.695Z,0.87
2024-01-11T06:04:32.634Z,0.87
2024-01-11T06:05:32.787Z,0.85
2024-01-11T06:06:32.737Z,0.83
2024-01-11T06:07:32.658Z,0.79
2024-01-11T06:08:32.806Z,0.78
2024-01-11T06:09:32.666Z,0.75
2024-01-11T06:10:32.658Z,0.73
2024-01-11T06:11:32.719Z,0.70
2024-01-11T06:12:32.687Z,0.70
2024-01-11T06:13:32.681Z,0.70
2024-01-11T06:14:32.742Z,0.71
2024-01-11T06:15:32.707Z,0.71
2024-01-11T06:16:32.727Z,0.73
2024-01-11T06:17:32.787Z,0.76
2024-01-11T06:18:32.791Z,0.79
2024-01-11T06:19:32.716Z,0.81
2024-01-11T06:20:32.711Z,0.82
2024-01-11T06:21:32.717Z,0.86
2024-01-11T06:22:32.701Z,0.88
2024-01-11T06:23:32.703Z,0.91
2024-01-11T06:24:32.714Z,0.92
2024-01-11T06:25:32.738Z,0.95
2024-01-11T06:26:32.732Z,0.95
2024-01-11T06:27:32.738Z,0.97
2024-01-11T06:28:34.619Z,1.00
2024-01-11T06:29:32.770Z,1.04
2024-01-11T06:30:32.791Z,1.07
2024-01-11T06:31:32.798Z,1.07
2024-01-11T06:32:32.833Z,1.03
2024-01-11T06:33:32.849Z,1.05
2024-01-11T06:34:32.810Z,1.05
2024-01-11T06:35:32.814Z,1.06
2024-01-11T06:36:32.767Z,1.06
2024-01-11T06:37:32.777Z,0.99
2024-01-11T06:38:32.776Z,1.03
2024-01-11T06:39:33.297Z,1.07
2024-01-11T06:40:32.791Z,1.09
2024-01-11T06:41:32.823Z,1.12
2024-01-11T06:42:32.762Z,1.17
2024-01-11T06:43:32.789Z,1.16
2024-01-11T06:44:32.777Z,1.18
2024-01-11T06:45:32.768Z,1.23
2024-01-11T06:46:32.777Z,1.23
2024-01-11T06:47:32.984Z,1.24
2024-01-11T06:48:32.891Z,1.28
2024-01-11T06:49:32.878Z,1.37
2024-01-11T06:50:32.800Z,1.44
2024-01-11T06:51:32.755Z,1.53
2024-01-11T06:52:32.775Z,1.54
2024-01-11T06:53:32.812Z,1.85
2024-01-11T06:54:32.735Z,2.02
2024-01-11T06:55:32.710Z,2.26
2024-01-11T06:56:32.817Z,2.26
2024-01-11T06:57:32.752Z,2.29
2024-01-11T06:58:32.726Z,2.35
2024-01-11T06:59:32.798Z,2.38
2024-01-11T07:00:32.813Z,2.18
2024-01-11T07:01:32.731Z,1.98
2024-01-11T07:02:32.771Z,1.76
2024-01-11T07:03:32.784Z,1.66
2024-01-11T07:04:34.584Z,1.66
2024-01-11T07:05:32.826Z,1.67
2024-01-11T07:06:32.799Z,1.70
2024-01-11T07:07:32.752Z,1.75
2024-01-11T07:08:32.787Z,1.86
2024-01-11T07:09:32.761Z,1.92
2024-01-11T07:10:32.743Z,1.99
2024-01-11T07:11:32.766Z,2.09
2024-01-11T07:12:32.755Z,2.20
2024-01-11T07:13:32.752Z,2.35
2024-01-11T07:14:32.821Z,2.49
2024-01-11T07:15:32.752Z,2.58
2024-01-11T07:16:32.748Z,2.59
2024-01-11T07:17:32.788Z,2.62
2024-01-11T07:18:32.821Z,2.73
2024-01-11T07:19:33.025Z,2.93
2024-01-11T07:20:32.743Z,3.38
2024-01-11T07:21:32.866Z,3.61
2024-01-11T07:22:32.676Z,3.79
2024-01-11T07:23:32.682Z,3.98
2024-01-11T07:24:32.687Z,4.19
2024-01-11T07:25:32.646Z,4.34
2024-01-11T07:26:32.686Z,4.58
2024-01-11T07:27:32.653Z,4.59
2024-01-11T07:28:32.665Z,4.63
2024-01-11T07:29:32.646Z,4.80
2024-01-11T07:30:32.722Z,5.08
2024-01-11T07:31:32.599Z,5.70
2024-01-11T07:32:32.744Z,6.04
2024-01-11T07:33:32.733Z,6.23
2024-01-11T07:34:32.688Z,6.24
2024-01-11T07:35:32.580Z,6.31
2024-01-11T07:36:32.591Z,6.54
2024-01-11T07:37:32.559Z,6.87
2024-01-11T07:38:32.590Z,7.64
2024-01-11T07:39:32.550Z,7.80
2024-01-11T07:40:34.525Z,7.98
2024-01-11T07:41:32.628Z,8.18
2024-01-11T07:42:32.502Z,8.33
2024-01-11T07:43:41.191Z,8.34
2024-01-11T07:44:33.533Z,8.34
2024-01-11T07:45:32.478Z,8.48
2024-01-11T07:46:38.981Z,8.58
2024-01-11T07:47:32.522Z,8.09
2024-01-11T07:48:32.593Z,6.97
2024-01-11T07:49:32.486Z,6.53
2024-01-11T07:50:32.563Z,6.20
2024-01-11T07:51:32.460Z,6.06
2024-01-11T07:52:32.499Z,5.98
2024-01-11T07:53:32.557Z,5.98
2024-01-11T07:54:32.458Z,5.98
2024-01-11T07:55:32.477Z,6.02
2024-01-11T07:56:32.506Z,6.09
2024-01-11T07:57:32.459Z,6.10
2024-01-11T07:58:32.459Z,6.08
2024-01-11T07:59:32.494Z,6.24
2024-01-11T08:00:32.552Z,6.39
2024-01-11T08:01:32.406Z,6.39
2024-01-11T08:02:32.511Z,6.41
2024-01-11T08:03:32.406Z,6.50
2024-01-11T08:04:32.373Z,6.71
2024-01-11T08:05:32.414Z,6.42
2024-01-11T08:06:32.455Z,6.51
2024-01-11T08:07:32.349Z,6.74
2024-01-11T08:08:32.404Z,6.98
2024-01-11T08:09:32.390Z,6.43
2024-01-11T08:10:32.318Z,6.43
2024-01-11T08:11:33.706Z,6.60
2024-01-11T08:12:32.447Z,6.96
2024-01-11T08:13:32.426Z,7.44
2024-01-11T08:14:32.492Z,8.44
2024-01-11T08:15:32.466Z,8.50
2024-01-11T08:16:32.473Z,8.71
2024-01-11T08:17:32.559Z,8.75
2024-01-11T08:18:32.742Z,9.08
2024-01-11T08:19:32.518Z,9.09
2024-01-11T08:20:32.558Z,9.10
2024-01-11T08:21:32.471Z,9.16
2024-01-11T08:22:32.491Z,9.46
2024-01-11T08:23:32.469Z,9.64
2024-01-11T08:24:32.446Z,9.75
2024-01-11T08:25:32.403Z,8.90
2024-01-11T08:26:32.508Z,9.64
2024-01-11T08:27:32.395Z,10.02
2024-01-11T08:28:32.383Z,8.97
2024-01-11T08:29:32.397Z,7.01
2024-01-11T08:30:32.374Z,5.61
2024-01-11T08:31:32.371Z,4.89
2024-01-11T08:32:32.857Z,4.51
2024-01-11T08:33:32.569Z,4.47
2024-01-11T08:34:32.685Z,4.48
2024-01-11T08:35:32.532Z,4.38
2024-01-11T08:36:32.509Z,4.35
2024-01-11T08:37:32.486Z,4.35
2024-01-11T08:38:32.455Z,4.47
2024-01-11T08:39:32.485Z,4.93
2024-01-11T08:40:32.441Z,5.30
2024-01-11T08:41:32.517Z,5.55
2024-01-11T08:42:32.412Z,5.75
2024-01-11T08:43:32.443Z,5.76
2024-01-11T08:44:32.427Z,5.84
2024-01-11T08:45:32.499Z,6.13
2024-01-11T08:46:32.369Z,6.53
2024-01-11T08:47:32.451Z,5.80
2024-01-11T08:48:32.433Z,6.03
2024-01-11T08:49:32.335Z,6.59
2024-01-11T08:50:32.318Z,7.59
2024-01-11T08:51:32.270Z,9.82
2024-01-11T08:52:32.269Z,10.27
2024-01-11T08:53:32.300Z,10.34
2024-01-11T08:54:32.247Z,10.76
2024-01-11T08:55:32.275Z,10.78
2024-01-11T08:56:32.361Z,12.41
2024-01-11T08:57:32.349Z,14.18
2024-01-11T08:58:32.409Z,15.95
2024-01-11T08:59:32.520Z,15.98
2024-01-11T09:00:32.503Z,16.17
2024-01-11T09:01:32.526Z,16.45
2024-01-11T09:02:32.608Z,16.07
2024-01-11T09:03:32.673Z,16.17
2024-01-11T09:04:32.706Z,17.24
2024-01-11T09:05:32.770Z,16.69
2024-01-11T09:06:32.716Z,16.73
2024-01-11T09:07:32.629Z,16.71
2024-01-11T09:08:32.656Z,16.76
2024-01-11T09:09:36.783Z,17.25
2024-01-11T09:10:33.568Z,16.70
2024-01-11T09:11:32.605Z,16.75
2024-01-11T09:12:32.525Z,16.46
2024-01-11T09:13:32.518Z,16.83
2024-01-11T09:14:32.495Z,17.01
2024-01-11T09:15:32.480Z,16.18
2024-01-11T09:16:32.461Z,16.00
2024-01-11T09:17:32.482Z,16.73
2024-01-11T09:18:32.573Z,16.75
2024-01-11T09:19:32.451Z,16.73
2024-01-11T09:20:32.437Z,16.87
2024-01-11T09:21:32.382Z,17.15
2024-01-11T09:22:32.387Z,17.45
2024-01-11T09:23:32.378Z,17.56
2024-01-11T09:24:36.084Z,16.16
2024-01-11T09:25:33.316Z,16.19
2024-01-11T09:26:32.354Z,16.23
2024-01-11T09:27:32.290Z,16.18
2024-01-11T09:28:32.247Z,16.30
2024-01-11T09:29:32.352Z,16.50
2024-01-11T09:30:32.299Z,16.51
2024-01-11T09:31:32.234Z,16.23
2024-01-11T09:32:32.449Z,12.67
2024-01-11T09:33:32.495Z,10.54
2024-01-11T09:34:32.219Z,10.89
2024-01-11T09:35:32.184Z,11.04
2024-01-11T09:36:32.152Z,8.94
2024-01-11T09:37:32.193Z,7.09
2024-01-11T09:38:32.251Z,5.11
2024-01-11T09:39:32.297Z,3.74
2024-01-11T09:40:32.310Z,2.87
2024-01-11T09:41:32.341Z,2.24
2024-01-11T09:42:32.425Z,1.98
2024-01-11T09:43:32.413Z,1.62
2024-01-11T09:44:32.423Z,1.40
2024-01-11T09:45:32.445Z,1.12
2024-01-11T09:46:32.475Z,0.95
2024-01-11T09:47:32.549Z,0.80
2024-01-11T09:48:32.573Z,0.69
2024-01-11T09:49:32.671Z,0.58
2024-01-11T09:50:32.590Z,0.50
2024-01-11T09:51:32.636Z,0.49
2024-01-11T09:52:33.671Z,0.48
2024-01-11T09:53:32.717Z,0.50
2024-01-11T09:54:32.723Z,0.51
2024-01-11T09:55:32.773Z,0.51
2024-01-11T09:56:32.866Z,0.52
2024-01-11T09:57:32.905Z,0.54
2024-01-11T09:58:32.900Z,0.58
2024-01-11T09:59:33.013Z,0.60
2024-01-11T10:00:33.093Z,0.62
2024-01-11T10:01:33.129Z,0.64
2024-01-11T10:02:33.225Z,0.68
2024-01-11T10:03:33.219Z,0.75
2024-01-11T10:04:33.224Z,0.80
2024-01-11T10:05:33.296Z,0.82
2024-01-11T10:06:33.291Z,0.87
2024-01-11T10:07:33.523Z,0.91
2024-01-11T10:08:33.376Z,0.89
2024-01-11T10:09:33.362Z,0.90
2024-01-11T10:10:33.407Z,0.90
2024-01-11T10:11:33.411Z,0.92
2024-01-11T10:12:33.363Z,0.92
2024-01-11T10:13:33.354Z,0.93
2024-01-11T10:14:33.508Z,0.89
2024-01-11T10:15:33.374Z,0.89
2024-01-11T10:16:33.386Z,0.92
2024-01-11T10:17:33.516Z,0.92
2024-01-11T10:18:33.540Z,0.94
2024-01-11T10:19:33.609Z,0.98
2024-01-11T10:20:33.781Z,1.01
2024-01-11T10:21:33.637Z,1.06
2024-01-11T10:22:33.641Z,1.12
2024-01-11T10:23:33.632Z,1.12
2024-01-11T10:24:33.652Z,1.18
2024-01-11T10:25:33.690Z,1.25
2024-01-11T10:26:33.799Z,1.26
2024-01-11T10:27:33.705Z,1.32
2024-01-11T10:28:33.721Z,1.40
2024-01-11T10:29:33.737Z,1.42
2024-01-11T10:30:33.791Z,1.46
2024-01-11T10:31:33.766Z,1.49
2024-01-11T10:32:33.820Z,1.54
2024-01-11T10:33:33.816Z,1.59
2024-01-11T10:34:33.826Z,1.69
2024-01-11T10:35:33.981Z,1.74
2024-01-11T10:36:33.999Z,1.80
2024-01-11T10:37:33.953Z,1.83
2024-01-11T10:38:34.007Z,1.83
2024-01-11T10:40:28.792Z,0.50
2024-01-11T10:41:28.750Z,0.50
2024-01-11T10:42:28.682Z,0.50
2024-01-11T10:43:28.636Z,0.50
2024-01-11T10:44:28.682Z,0.50
2024-01-11T10:45:28.661Z,0.51
2024-01-11T10:46:28.732Z,0.52
2024-01-11T10:47:28.699Z,0.54
2024-01-11T10:48:28.780Z,0.57
2024-01-11T10:49:28.729Z,0.55
2024-01-11T10:50:28.663Z,0.56
2024-01-11T10:51:28.654Z,0.59
2024-01-11T10:52:28.639Z,0.60
2024-01-11T10:53:29.516Z,0.60
2024-01-11T10:54:28.622Z,0.61
2024-01-11T10:55:28.822Z,0.61
2024-01-11T10:56:28.643Z,0.62
2024-01-11T10:57:28.604Z,0.64
2024-01-11T10:58:28.655Z,0.60
2024-01-11T10:59:28.584Z,0.61
2024-01-11T11:00:28.653Z,0.63
2024-01-11T11:01:28.548Z,0.68
2024-01-11T11:02:28.730Z,0.61
2024-01-11T11:03:28.538Z,0.62
2024-01-11T11:04:28.494Z,0.66
2024-01-11T11:05:28.645Z,0.71
2024-01-11T11:06:28.586Z,0.80
2024-01-11T11:07:28.475Z,0.84
2024-01-11T11:08:28.515Z,0.87
2024-01-11T11:09:28.439Z,0.92
2024-01-11T11:10:28.418Z,0.95
2024-01-11T11:11:28.460Z,0.97
2024-01-11T11:12:28.399Z,0.97
2024-01-11T11:13:28.416Z,0.98
2024-01-11T11:14:28.453Z,0.99
2024-01-11T11:15:28.347Z,1.04
2024-01-11T11:16:28.357Z,1.10
2024-01-11T11:17:28.469Z,1.15
2024-01-11T11:18:28.362Z,1.17
2024-01-11T11:19:28.340Z,1.19
2024-01-11T11:20:28.298Z,1.21
2024-01-11T11:21:28.305Z,1.22
2024-01-11T11:22:28.283Z,1.24
2024-01-11T11:23:28.303Z,1.29
2024-01-11T11:24:28.238Z,1.32
2024-01-11T11:25:28.242Z,1.33
2024-01-11T11:26:28.327Z,1.37
2024-01-11T11:27:28.198Z,1.37
2024-01-11T11:28:28.223Z,1.42
2024-01-11T11:29:28.184Z,1.43
2024-01-11T11:30:28.167Z,1.45
2024-01-11T11:31:28.145Z,1.48
2024-01-11T11:32:28.277Z,1.50
2024-01-11T11:33:28.213Z,1.55
2024-01-11T11:34:28.185Z,1.55
2024-01-11T11:35:28.089Z,1.55
2024-01-11T11:36:28.039Z,1.56
2024-01-11T11:37:28.071Z,1.59
2024-01-11T11:38:28.115Z,1.58
2024-01-11T11:39:28.069Z,1.56
2024-01-11T11:40:27.973Z,1.53
2024-01-11T11:41:28.005Z,1.53
2024-01-11T11:42:27.994Z,1.54
2024-01-11T11:43:27.922Z,1.51
2024-01-11T11:44:27.933Z,1.43
2024-01-11T11:45:27.907Z,1.41
2024-01-11T11:46:27.874Z,1.33
2024-01-11T11:47:27.959Z,1.26
2024-01-11T11:48:27.950Z,1.21
2024-01-11T11:49:27.908Z,1.11
2024-01-11T11:50:27.848Z,1.02
2024-01-11T11:51:29.253Z,0.89
2024-01-11T11:52:27.816Z,0.82
2024-01-11T11:53:27.864Z,0.73
2024-01-11T11:54:27.782Z,0.66
2024-01-11T11:55:27.782Z,0.65
2024-01-11T11:56:27.785Z,0.60
2024-01-11T11:57:27.760Z,0.56
2024-01-11T11:58:27.735Z,0.52
2024-01-11T11:59:27.794Z,0.48
2024-01-11T12:00:27.715Z,0.50
2024-01-11T12:01:27.705Z,0.50
2024-01-11T12:02:27.730Z,0.50
2024-01-11T12:03:27.674Z,0.50
2024-01-11T12:04:27.743Z,0.51
2024-01-11T12:05:27.742Z,0.50
2024-01-11T12:06:27.796Z,0.50
2024-01-11T12:07:27.813Z,0.50
2024-01-11T12:08:27.935Z,0.50
2024-01-11T12:09:27.870Z,0.50
2024-01-11T12:10:27.912Z,0.50
2024-01-11T12:11:28.248Z,0.50
2024-01-11T12:12:28.016Z,0.50
2024-01-11T12:13:27.958Z,0.50
2024-01-11T12:14:28.672Z,0.51
2024-01-11T12:15:27.948Z,0.50
2024-01-11T12:16:27.945Z,0.50
2024-01-11T12:17:28.191Z,0.50
2024-01-11T12:18:28.001Z,0.49
2024-01-11T12:19:28.031Z,0.47
2024-01-11T12:20:27.898Z,0.48
2024-01-11T12:21:27.890Z,0.51
2024-01-11T12:22:27.881Z,0.51
2024-01-11T12:23:27.867Z,0.52
2024-01-11T12:24:27.857Z,0.54
2024-01-11T12:25:27.841Z,0.55
2024-01-11T12:26:27.892Z,0.56
2024-01-11T12:27:27.888Z,0.60
2024-01-11T12:28:27.849Z,0.62
2024-01-11T12:30:27.950Z,0.60
2024-01-11T12:31:27.881Z,0.64
2024-01-11T12:32:27.908Z,0.68
2024-01-11T12:33:28.102Z,0.69
2024-01-11T12:34:27.986Z,0.71
2024-01-11T12:35:28.033Z,0.76
2024-01-11T12:36:28.034Z,0.80
2024-01-11T12:37:28.062Z,0.86
2024-01-11T12:38:28.126Z,0.94
2024-01-11T12:39:28.142Z,0.96
2024-01-11T12:40:28.122Z,0.96
2024-01-11T12:41:28.179Z,0.98
2024-01-11T12:42:28.100Z,1.03
2024-01-11T12:43:28.085Z,1.11
2024-01-11T12:44:28.094Z,1.27
2024-01-11T12:45:28.082Z,1.34
2024-01-11T12:46:28.044Z,1.43
2024-01-11T12:47:28.205Z,1.47
2024-01-11T12:48:28.264Z,1.53
2024-01-11T12:49:28.087Z,1.53
2024-01-11T12:50:28.330Z,1.56
2024-01-11T12:51:27.994Z,1.67
2024-01-11T12:52:27.962Z,1.60
2024-01-11T12:53:28.050Z,1.69
2024-01-11T12:54:27.939Z,1.68
2024-01-11T12:55:27.957Z,1.75
2024-01-11T12:56:27.975Z,1.87
2024-01-11T12:57:28.007Z,1.79
2024-01-11T12:58:28.009Z,1.85
2024-01-11T12:59:27.880Z,1.97
2024-01-11T13:00:27.868Z,1.96
2024-01-11T13:01:27.896Z,2.03
2024-01-11T13:02:27.998Z,2.09
2024-01-11T13:03:27.968Z,2.08
2024-01-11T13:04:27.963Z,2.13
2024-01-11T13:05:28.066Z,2.11
2024-01-11T13:06:28.067Z,2.15
2024-01-11T13:07:28.047Z,2.17
2024-01-11T13:08:28.052Z,2.20
2024-01-11T13:09:28.056Z,2.26
2024-01-11T13:10:28.079Z,2.27
2024-01-11T13:11:28.108Z,2.32
2024-01-11T13:12:28.106Z,2.33
2024-01-11T13:13:28.131Z,2.40
2024-01-11T13:14:28.182Z,2.34
2024-01-11T13:15:28.119Z,2.34
2024-01-11T13:16:28.085Z,2.36
2024-01-11T13:17:28.179Z,2.40
2024-01-11T13:18:28.049Z,2.45